Willow View Heights, Pennsylvania
Current Conditions -  °F | °C
As of 9:53 PM on Friday 28 Nov 2014 (Local Time) from KLNS Reporting Station
Scattered Clouds Scattered Clouds  
Wind Chill: 26°   Ceiling: Unl
Heat Index: 26°   Visibility: 10mi
Dew Point: 15°   Wind: 0mph
Humidity: 63%   Direction: NA
Pressure: 30.26"   Gusts: NA
Location:  40.0158°N, 76.2452°W
Report Text: KLNS 290253Z AUTO 00000KT 10SM SCT120 M03/M09 A3026 RMK AO2 SLP252 T10331094 50002
Loading
Personal Weather Stations






























Interactive Weather Map New forecast layout! Learn more

10-Day Weather Forecast

Advertisements
Track Severe Weather on mobile